Time;durP1;ratioP1;P1;durP2;ratioP2;P2;SDS_P1;SDS_P2;PMS_P1;PMS_P2;Temp;Humidity;BMP_temperature;BMP_pressure;BME280_temperature;BME280_humidity;BME280_pressure;Samples;Min_cycle;Max_cycle;Signal;HPM_P1;HPM_P2
2022/06/06 00:01:34;;;;;;;2.43;1.10;;;;;;;19.00;64.60;98006.44;8348859;28;20249;-76
2022/06/06 00:05:42;;;;;;;3.13;1.37;;;;;;;18.97;64.92;98005.84;8348913;28;20234;-77
2022/06/06 00:09:45;;;;;;;3.87;1.40;;;;;;;18.91;64.96;98005.34;8348728;28;20246;-77
2022/06/06 00:13:48;;;;;;;2.03;1.30;;;;;;;18.98;64.93;97997.00;8348751;28;20557;-77
2022/06/06 00:17:50;;;;;;;3.30;1.47;;;;;;;18.95;64.44;97996.28;8348696;28;20246;-77
2022/06/06 00:21:55;;;;;;;5.37;1.47;;;;;;;18.95;64.38;97998.91;8347507;28;20241;-77
2022/06/06 00:25:58;;;;;;;3.90;1.57;;;;;;;18.90;65.12;97995.81;8348291;28;20236;-78
2022/06/06 00:30:01;;;;;;;2.10;1.33;;;;;;;18.91;65.12;97989.63;8348165;28;20569;-77
2022/06/06 00:38:26;;;;;;;3.70;1.70;;;;;;;18.87;65.01;97988.19;8347605;28;20235;-75
2022/06/06 00:42:30;;;;;;;2.53;1.30;;;;;;;18.79;65.30;97987.94;8347511;28;20441;-76
2022/06/06 00:46:34;;;;;;;2.80;1.40;;;;;;;18.84;65.06;97988.41;8347789;28;20234;-76
2022/06/06 00:50:41;;;;;;;2.47;1.50;;;;;;;18.84;65.27;97984.97;8347765;28;20234;-76
2022/06/06 00:54:46;;;;;;;4.43;1.50;;;;;;;18.83;65.67;97978.91;8347697;28;20248;-76
2022/06/06 00:58:51;;;;;;;6.00;1.50;;;;;;;18.84;65.78;97982.34;8347473;28;20255;-76
2022/06/06 01:02:56;;;;;;;3.03;1.60;;;;;;;18.79;66.13;97985.31;8347293;28;20241;-76
2022/06/06 01:07:00;;;;;;;2.00;1.50;;;;;;;18.70;66.11;97978.16;8347418;28;20559;-76
2022/06/06 01:11:04;;;;;;;8.50;1.67;;;;;;;18.66;66.16;97974.09;8347364;28;20237;-78
2022/06/06 01:15:10;;;;;;;3.33;1.50;;;;;;;18.63;65.83;97983.00;8347218;28;20233;-76
2022/06/06 01:19:34;;;;;;;3.17;1.40;;;;;;;18.60;65.97;97970.16;8347130;28;20229;-76
2022/06/06 01:24:09;;;;;;;2.23;1.60;;;;;;;18.59;66.23;97963.22;8346840;28;20229;-76
2022/06/06 01:28:44;;;;;;;4.63;1.67;;;;;;;18.62;66.16;97964.75;8309050;28;20235;-76
2022/06/06 01:32:55;;;;;;;3.43;1.70;;;;;;;18.56;66.23;97966.06;8350928;28;20228;-76
2022/06/06 01:36:58;;;;;;;4.57;2.03;;;;;;;18.51;66.21;97974.31;8353635;28;20229;-76
2022/06/06 01:41:05;;;;;;;3.90;1.60;;;;;;;18.45;66.24;97969.53;8353208;28;20230;-76
2022/06/06 01:45:14;;;;;;;3.90;1.63;;;;;;;18.42;66.21;97972.38;8353289;28;20404;-76
2022/06/06 01:49:17;;;;;;;6.70;1.97;;;;;;;18.36;66.59;97971.06;8353156;28;20453;-76
2022/06/06 01:53:21;;;;;;;5.93;1.97;;;;;;;18.31;66.79;97962.72;8353148;28;20244;-76
2022/06/06 01:57:25;;;;;;;3.63;1.80;;;;;;;18.29;66.57;97959.38;8344789;28;20226;-77
2022/06/06 02:01:30;;;;;;;5.53;2.00;;;;;;;18.28;66.24;97964.75;8352708;28;20226;-75
2022/06/06 02:05:33;;;;;;;5.30;2.07;;;;;;;18.29;66.15;97967.22;8352815;28;20233;-75
2022/06/06 02:09:36;;;;;;;3.47;2.10;;;;;;;18.22;66.06;97967.81;8352767;28;20229;-76
2022/06/06 02:13:39;;;;;;;4.40;2.03;;;;;;;18.15;66.40;97968.28;8352435;28;20229;-76
2022/06/06 02:17:44;;;;;;;4.20;2.20;;;;;;;18.15;66.57;97975.31;8352366;28;20247;-76
2022/06/06 02:21:47;;;;;;;4.63;2.40;;;;;;;17.93;67.83;97978.69;8352211;28;20255;-76
2022/06/06 02:25:50;;;;;;;3.87;2.33;;;;;;;18.04;67.58;97977.91;8352141;28;20536;-76
2022/06/06 02:29:53;;;;;;;2.57;1.90;;;;;;;18.09;66.92;97987.09;8351999;28;20239;-76
2022/06/06 02:33:57;;;;;;;3.60;2.23;;;;;;;18.08;66.90;97984.59;8351802;28;20277;-76
2022/06/06 02:38:00;;;;;;;4.63;2.10;;;;;;;18.11;66.49;97985.19;8351798;28;20229;-76
2022/06/06 02:42:04;;;;;;;7.10;2.40;;;;;;;16.92;71.61;97984.19;8350925;28;20241;-76
2022/06/06 02:46:07;;;;;;;5.47;2.50;;;;;;;17.51;68.80;97980.88;8351047;28;20233;-76
2022/06/06 02:50:12;;;;;;;4.93;2.20;;;;;;;17.81;68.07;97988.28;8351327;28;20229;-76
2022/06/06 02:54:14;;;;;;;5.33;2.10;;;;;;;17.88;67.40;97984.28;8351234;28;20277;-76
2022/06/06 02:58:17;;;;;;;4.03;2.50;;;;;;;17.94;67.55;97988.25;8351126;28;20229;-77
2022/06/06 03:02:20;;;;;;;5.63;2.47;;;;;;;17.81;67.64;97987.44;8350872;28;20236;-77
2022/06/06 03:06:34;;;;;;;7.63;2.53;;;;;;;17.97;66.81;97995.84;8342383;28;20237;-76
2022/06/06 03:10:47;;;;;;;4.40;2.50;;;;;;;17.94;67.00;97993.47;8350799;28;20234;-77
2022/06/06 03:15:03;;;;;;;3.73;2.33;;;;;;;17.92;67.05;97995.38;8350653;28;20563;-76
2022/06/06 03:23:59;;;;;;;9.40;2.67;;;;;;;17.84;66.78;98005.53;8350148;28;20235;-77
2022/06/06 03:28:07;;;;;;;5.00;2.83;;;;;;;17.82;66.30;98002.19;8350261;28;20236;-76
2022/06/06 03:32:18;;;;;;;5.13;2.53;;;;;;;17.79;66.58;98011.13;8350049;28;20240;-77
2022/06/06 03:36:26;;;;;;;5.43;2.60;;;;;;;17.73;66.73;98007.16;8349929;28;20234;-77
2022/06/06 03:40:41;;;;;;;6.80;2.80;;;;;;;17.77;66.75;98018.25;8349343;28;20244;-77
2022/06/06 03:44:57;;;;;;;3.60;2.50;;;;;;;17.81;66.74;98019.69;8349612;28;20264;-76
2022/06/06 03:49:11;;;;;;;3.57;2.80;;;;;;;17.82;67.07;98023.16;8349516;28;20431;-77
2022/06/06 03:53:20;;;;;;;4.90;3.10;;;;;;;17.83;66.88;98024.84;8349296;28;20228;-77
2022/06/06 03:57:26;;;;;;;4.30;3.10;;;;;;;17.90;66.94;98042.66;8348835;28;20273;-76
2022/06/06 04:01:29;;;;;;;3.93;3.23;;;;;;;17.98;67.24;98044.69;8349057;28;20245;-77
2022/06/06 04:05:36;;;;;;;5.37;3.33;;;;;;;18.03;67.01;98045.22;8348954;28;20232;-77
2022/06/06 04:09:39;;;;;;;3.87;3.17;;;;;;;18.11;66.61;98052.50;8348808;28;20430;-77
2022/06/06 04:13:50;;;;;;;6.43;3.23;;;;;;;18.15;66.75;98051.31;8348758;28;20256;-77
2022/06/06 04:18:11;;;;;;;4.90;3.30;;;;;;;18.26;66.33;98056.59;8348565;28;20229;-78
2022/06/06 04:22:21;;;;;;;6.27;3.20;;;;;;;18.21;66.96;98063.97;8348295;28;20229;-77
2022/06/06 04:26:29;;;;;;;3.90;3.23;;;;;;;18.18;67.13;98053.69;8347929;28;20234;-76
2022/06/06 04:30:39;;;;;;;4.83;3.30;;;;;;;18.27;67.19;98054.81;8348181;28;20239;-77
2022/06/06 04:34:48;;;;;;;5.97;3.47;;;;;;;18.29;66.99;98063.41;8348248;28;20241;-77
2022/06/06 04:39:04;;;;;;;5.23;3.63;;;;;;;18.33;67.35;98052.59;8348008;28;20245;-77
2022/06/06 04:43:12;;;;;;;4.00;3.60;;;;;;;18.40;67.36;98067.84;8347855;28;20241;-77
2022/06/06 04:47:19;;;;;;;4.53;3.80;;;;;;;18.44;67.45;98071.91;8347825;28;20234;-77
2022/06/06 04:51:22;;;;;;;6.40;4.10;;;;;;;18.39;68.18;98076.66;8347497;28;20450;-76
2022/06/06 04:55:26;;;;;;;5.50;4.20;;;;;;;18.58;67.38;98091.84;8347807;28;20551;-76
2022/06/06 04:59:31;;;;;;;6.93;4.57;;;;;;;18.60;67.74;98089.94;8347678;28;20235;-77
2022/06/06 05:03:35;;;;;;;5.97;4.20;;;;;;;18.78;67.36;98091.19;8347685;28;20232;-77
2022/06/06 05:07:48;;;;;;;5.37;3.77;;;;;;;18.89;66.82;98096.47;8346983;28;20253;-77
2022/06/06 05:12:00;;;;;;;6.13;3.60;;;;;;;18.79;67.57;98092.00;8347270;28;20230;-77
2022/06/06 05:16:25;;;;;;;4.93;3.40;;;;;;;18.98;66.78;98100.16;8347290;28;20236;-77
2022/06/06 05:20:49;;;;;;;5.53;3.77;;;;;;;19.10;66.13;98101.88;8346847;28;20264;-77
2022/06/06 05:25:05;;;;;;;7.17;4.13;;;;;;;18.89;66.85;98109.59;8347049;28;20439;-77
2022/06/06 05:29:51;;;;;;;8.03;4.50;;;;;;;19.06;66.67;98104.84;8346822;28;20233;-77
2022/06/06 05:33:56;;;;;;;5.27;4.40;;;;;;;19.23;66.20;98107.00;8214426;28;20237;-77
2022/06/06 05:38:07;;;;;;;5.70;4.73;;;;;;;19.49;65.38;98101.50;8276247;28;20244;-77
2022/06/06 05:42:25;;;;;;;5.87;5.27;;;;;;;19.49;65.55;98106.75;8346525;28;20435;-77
2022/06/06 05:46:39;;;;;;;7.23;4.53;;;;;;;19.44;65.45;98107.13;8339147;28;20241;-77
2022/06/06 05:50:52;;;;;;;7.53;5.17;;;;;;;19.43;65.44;98102.00;8346732;28;20250;-77
2022/06/06 05:55:15;;;;;;;6.43;4.77;;;;;;;19.74;64.68;98108.28;8346599;28;20237;-77
2022/06/06 05:59:34;;;;;;;6.17;4.67;;;;;;;19.97;63.87;98105.63;8346536;28;20242;-77
2022/06/06 06:04:08;;;;;;;9.83;5.30;;;;;;;19.88;64.81;98102.78;8346231;28;20234;-77
2022/06/06 06:08:37;;;;;;;6.73;4.63;;;;;;;19.92;64.18;98106.84;8346315;28;20238;-77
2022/06/06 06:12:54;;;;;;;5.83;5.10;;;;;;;20.10;63.31;98112.41;8346219;28;20228;-77
2022/06/06 06:17:00;;;;;;;6.87;5.00;;;;;;;20.05;64.36;98116.38;8346272;28;20238;-77
2022/06/06 06:21:08;;;;;;;5.20;4.70;;;;;;;20.09;64.19;98116.00;8351637;28;20245;-77
2022/06/06 06:25:12;;;;;;;8.47;5.00;;;;;;;20.09;63.91;98118.63;8351954;28;20250;-77
2022/06/06 06:29:17;;;;;;;8.87;4.70;;;;;;;20.09;63.50;98108.09;8351912;28;20233;-77
2022/06/06 06:33:29;;;;;;;6.30;5.10;;;;;;;20.01;64.18;98123.66;8351775;28;20262;-77
2022/06/06 06:37:52;;;;;;;4.90;4.50;;;;;;;20.08;63.57;98121.38;8351512;28;20228;-77
2022/06/06 06:42:07;;;;;;;6.10;4.60;;;;;;;20.03;63.46;98121.75;8351387;28;20249;-77
2022/06/06 06:46:20;;;;;;;8.80;5.20;;;;;;;20.09;63.69;98123.88;8351272;28;20241;-77
2022/06/06 06:50:30;;;;;;;6.27;5.37;;;;;;;20.12;63.57;98120.16;8350927;28;20223;-76
2022/06/06 06:54:47;;;;;;;6.07;4.90;;;;;;;20.31;62.95;98119.50;8350976;28;20232;-77
2022/06/06 06:58:53;;;;;;;5.20;4.67;;;;;;;20.64;61.80;98120.34;8350994;28;20238;-77
2022/06/06 07:12:10;;;;;;;6.10;4.90;;;;;;;21.32;59.99;98115.44;8350572;28;20263;-77
2022/06/06 07:16:20;;;;;;;8.43;5.27;;;;;;;21.00;59.98;98112.94;8350509;28;20265;-77
2022/06/06 07:20:30;;;;;;;6.43;5.27;;;;;;;20.79;60.92;98110.31;8350048;28;20228;-76
2022/06/06 07:24:33;;;;;;;7.87;5.33;;;;;;;20.96;59.40;98116.78;8350197;28;20442;-77
2022/06/06 07:28:36;;;;;;;7.20;4.83;;;;;;;21.62;58.41;98119.88;8349749;28;20232;-77
2022/06/06 07:32:48;;;;;;;10.13;4.53;;;;;;;20.72;60.84;98119.72;8349982;28;20232;-77
2022/06/06 07:37:00;;;;;;;5.60;4.30;;;;;;;21.39;58.65;98124.50;8349821;28;20231;-77
2022/06/06 07:41:12;;;;;;;7.83;4.80;;;;;;;21.28;58.25;98111.41;8349623;28;20263;-77
2022/06/06 07:45:24;;;;;;;6.97;4.20;;;;;;;21.85;56.98;98114.41;8349471;28;20232;-77
2022/06/06 07:49:37;;;;;;;6.33;4.57;;;;;;;22.04;56.13;98105.69;8349105;28;20244;-77
2022/06/06 07:53:52;;;;;;;8.70;4.80;;;;;;;22.32;55.34;98096.16;8349347;28;20228;-78
2022/06/06 07:58:04;;;;;;;7.33;4.40;;;;;;;22.57;55.18;98094.75;8349317;28;20534;-75
2022/06/06 08:02:23;;;;;;;7.03;4.13;;;;;;;23.23;53.22;98093.09;8349139;28;20239;-75
2022/06/06 08:06:37;;;;;;;6.10;3.83;;;;;;;23.26;52.32;98090.16;8340889;28;20238;-77
2022/06/06 08:10:42;;;;;;;5.27;3.93;;;;;;;23.40;51.85;98087.03;8348744;28;20644;-78
2022/06/06 08:15:09;;;;;;;5.70;3.97;;;;;;;23.27;52.28;98086.56;8348745;28;20229;-76
2022/06/06 08:19:36;;;;;;;6.80;3.87;;;;;;;22.97;53.02;98092.88;8348664;28;20236;-76
2022/06/06 08:23:40;;;;;;;4.57;3.73;;;;;;;23.61;50.11;98094.72;8342430;28;20331;-76
2022/06/06 08:27:47;;;;;;;6.80;3.70;;;;;;;22.73;52.81;98082.78;8348367;28;20303;-75
2022/06/06 08:31:50;;;;;;;5.47;3.30;;;;;;;22.94;50.39;98082.59;8348204;28;20232;-75
2022/06/06 08:36:01;;;;;;;3.77;2.97;;;;;;;23.39;49.04;98082.72;8348039;28;20236;-75
2022/06/06 08:40:18;;;;;;;5.27;3.07;;;;;;;23.71;47.84;98081.44;8347267;28;20229;-75
2022/06/06 08:44:29;;;;;;;5.47;3.00;;;;;;;24.32;47.05;98073.81;8347767;28;20239;-75
2022/06/06 08:48:41;;;;;;;7.40;2.87;;;;;;;23.78;48.84;98079.06;8340854;28;20385;-76
2022/06/06 08:53:18;;;;;;;4.23;2.80;;;;;;;23.25;48.90;98079.72;8347800;28;20254;-77
2022/06/06 08:57:36;;;;;;;5.37;3.00;;;;;;;22.92;48.86;98066.06;8300144;28;20225;-76
2022/06/06 09:02:00;;;;;;;3.53;2.90;;;;;;;22.70;49.27;98072.53;8347429;28;20233;-76
2022/06/06 09:06:30;;;;;;;3.03;2.47;;;;;;;22.67;50.23;98068.34;8347371;28;20504;-76
2022/06/06 09:10:48;;;;;;;5.37;2.80;;;;;;;22.49;50.75;98075.34;8321056;28;20228;-76
2022/06/06 09:15:25;;;;;;;3.83;2.60;;;;;;;22.50;50.87;98069.88;8314686;28;20260;-76
2022/06/06 09:20:04;;;;;;;4.63;2.67;;;;;;;24.34;47.78;98082.44;8339595;28;20231;-76
2022/06/06 09:24:52;;;;;;;3.33;2.70;;;;;;;25.06;45.34;98064.59;8347084;28;20240;-76
2022/06/06 09:29:14;;;;;;;5.63;2.60;;;;;;;24.58;46.71;98061.47;8346932;28;20228;-76
2022/06/06 09:33:46;;;;;;;3.73;2.30;;;;;;;24.05;47.20;98064.97;8346900;28;20547;-76
2022/06/06 09:38:05;;;;;;;9.53;2.70;;;;;;;24.49;45.65;98059.72;8346821;28;20250;-76
2022/06/06 09:42:16;;;;;;;3.07;2.20;;;;;;;24.67;44.96;98057.06;8346699;28;20242;-76
2022/06/06 09:46:51;;;;;;;4.33;2.60;;;;;;;25.38;43.31;98052.50;8346657;28;20420;-76
2022/06/06 09:51:43;;;;;;;2.90;2.33;;;;;;;25.12;44.96;98053.34;8346491;28;20278;-76
2022/06/06 10:00:43;;;;;;;3.50;2.43;;;;;;;26.64;42.72;98048.91;8319997;28;20235;-76
2022/06/06 10:05:13;;;;;;;4.67;2.47;;;;;;;27.01;40.46;98043.00;8319862;28;20240;-77
2022/06/06 10:10:01;;;;;;;3.53;2.27;;;;;;;27.52;39.27;98055.97;8319847;28;20263;-76
2022/06/06 10:14:18;;;;;;;4.47;2.20;;;;;;;27.06;37.16;98038.00;8311556;28;20235;-76
2022/06/06 10:18:40;;;;;;;5.00;2.10;;;;;;;26.72;37.65;98044.38;8319498;28;20243;-76
2022/06/06 10:23:11;;;;;;;4.17;2.10;;;;;;;25.80;39.57;98041.03;8352178;28;20248;-76
2022/06/06 10:27:19;;;;;;;2.90;1.87;;;;;;;25.81;38.68;98044.50;8351929;28;20587;-76
2022/06/06 10:31:40;;;;;;;5.07;2.17;;;;;;;25.18;40.24;98039.47;8351928;28;20248;-75
2022/06/06 10:35:54;;;;;;;2.93;2.00;;;;;;;25.34;40.46;98038.75;8351952;28;20233;-76
2022/06/06 10:40:15;;;;;;;3.10;2.20;;;;;;;26.42;37.91;98029.13;8351577;28;20293;-76
2022/06/06 10:44:34;;;;;;;3.63;2.03;;;;;;;27.41;38.35;98022.59;8351431;28;20562;-76
2022/06/06 10:48:57;;;;;;;6.00;2.40;;;;;;;26.42;38.74;98019.34;8351204;28;20231;-75
2022/06/06 10:53:16;;;;;;;2.93;2.00;;;;;;;26.36;39.46;98009.41;8351374;28;20241;-76
2022/06/06 10:57:44;;;;;;;4.07;2.30;;;;;;;26.48;38.51;98009.88;8351191;28;20234;-76
2022/06/06 11:02:13;;;;;;;3.07;2.03;;;;;;;26.08;38.74;98008.91;8338054;28;20237;-76
2022/06/06 11:06:41;;;;;;;2.27;1.80;;;;;;;25.16;39.30;98004.34;8349899;28;20234;-77
2022/06/06 11:11:00;;;;;;;2.07;1.60;;;;;;;25.67;39.24;98007.00;8350614;28;20275;-77
2022/06/06 11:15:05;;;;;;;2.97;2.03;;;;;;;26.51;37.61;98001.59;8350600;28;20426;-77
2022/06/06 11:19:47;;;;;;;4.93;3.10;;;;;;;25.81;39.85;98004.72;8350474;28;20237;-77
2022/06/06 11:23:58;;;;;;;3.70;2.00;;;;;;;26.52;40.61;98008.53;8338377;28;20240;-77
2022/06/06 11:28:17;;;;;;;2.57;1.77;;;;;;;27.26;38.93;98011.03;8350160;28;20230;-77
2022/06/06 11:32:35;;;;;;;3.33;1.90;;;;;;;27.44;37.41;97998.31;8350128;28;20550;-77
2022/06/06 11:37:23;;;;;;;4.73;1.87;;;;;;;27.90;38.18;98002.88;8343791;28;20226;-77
2022/06/06 11:41:46;;;;;;;2.53;1.77;;;;;;;28.52;38.53;97987.72;8293008;28;20231;-77
2022/06/06 11:46:11;;;;;;;3.93;1.80;;;;;;;27.89;37.19;97993.25;8316742;28;20550;-77
2022/06/06 11:50:35;;;;;;;3.97;2.23;;;;;;;28.72;35.70;97982.72;8316640;28;20350;-77
2022/06/06 11:55:09;;;;;;;3.27;1.70;;;;;;;28.64;37.26;97983.63;8349192;28;20242;-77
2022/06/06 11:59:37;;;;;;;2.33;1.57;;;;;;;28.94;35.60;97984.47;8349206;28;20434;-77
2022/06/06 12:04:11;;;;;;;3.60;1.57;;;;;;;29.07;34.48;97964.31;8349038;28;20547;-77
2022/06/06 12:08:32;;;;;;;3.67;1.50;;;;;;;29.18;34.83;97962.00;8348948;28;20227;-77
2022/06/06 12:12:58;;;;;;;3.43;1.50;;;;;;;28.47;35.11;97959.78;8348766;28;20535;-76
2022/06/06 12:17:10;;;;;;;4.77;1.63;;;;;;;28.53;33.16;97952.94;8348620;28;20436;-75
2022/06/06 12:21:41;;;;;;;3.20;1.60;;;;;;;28.56;33.89;97941.06;8348435;28;20228;-76
2022/06/06 12:25:59;;;;;;;2.67;1.40;;;;;;;27.55;34.12;97953.72;8348023;28;20350;-76
2022/06/06 12:30:24;;;;;;;2.20;1.30;;;;;;;28.34;32.90;97937.47;8348217;28;20235;-76
2022/06/06 12:34:38;;;;;;;1.83;1.03;;;;;;;28.65;31.42;97945.31;8347855;28;20561;-75
2022/06/06 12:38:47;;;;;;;3.93;1.23;;;;;;;28.89;31.55;97938.88;8348232;28;20242;-78
2022/06/06 12:42:55;;;;;;;1.93;1.20;;;;;;;28.83;29.70;97939.63;8347744;28;20239;-76
2022/06/06 12:47:15;;;;;;;4.37;1.27;;;;;;;27.69;33.29;97940.47;8347859;28;20263;-77
2022/06/06 12:51:25;;;;;;;3.63;1.50;;;;;;;27.40;33.99;97938.53;8347826;28;20236;-76
2022/06/06 12:55:39;;;;;;;2.43;1.40;;;;;;;26.57;35.36;97934.50;8347227;28;20238;-76
2022/06/06 12:59:48;;;;;;;2.20;1.13;;;;;;;26.20;33.42;97932.44;8347707;28;20421;-76
2022/06/06 13:04:10;;;;;;;2.67;1.10;;;;;;;25.92;32.90;97936.28;8347516;28;20230;-76
2022/06/06 13:08:28;;;;;;;1.80;0.93;;;;;;;25.53;34.84;97936.91;8347361;28;20253;-76
2022/06/06 13:12:43;;;;;;;3.60;1.40;;;;;;;25.01;33.98;97938.88;8347097;28;20223;-76
2022/06/06 13:16:54;;;;;;;2.53;1.07;;;;;;;24.77;34.25;97937.81;8347239;28;20234;-76
2022/06/06 13:21:03;;;;;;;1.90;1.20;;;;;;;24.65;35.20;97945.19;8347340;28;20230;-76
2022/06/06 13:25:18;;;;;;;3.57;1.40;;;;;;;24.65;35.26;97947.00;8347117;28;20439;-76
2022/06/06 13:29:29;;;;;;;4.90;1.47;;;;;;;24.38;35.17;97946.97;8352152;28;20232;-76
2022/06/06 13:33:44;;;;;;;2.50;1.20;;;;;;;24.34;36.10;97948.28;8353615;28;20458;-76
2022/06/06 13:38:12;;;;;;;3.63;1.27;;;;;;;24.34;36.09;97950.94;8353691;28;20543;-76
2022/06/06 13:42:24;;;;;;;5.40;2.00;;;;;;;24.35;35.82;97947.31;8350883;28;20428;-77
2022/06/06 13:46:39;;;;;;;2.37;1.30;;;;;;;24.69;36.32;97946.53;8352947;28;20270;-76
2022/06/06 13:50:52;;;;;;;2.53;1.30;;;;;;;24.40;36.82;97946.84;8353305;28;20247;-77
2022/06/06 13:54:55;;;;;;;3.87;1.30;;;;;;;24.40;37.87;97934.41;8353110;28;20228;-76
2022/06/06 13:59:03;;;;;;;3.00;1.20;;;;;;;24.70;36.83;97934.13;8352885;28;20243;-77
2022/06/06 14:03:19;;;;;;;1.70;1.07;;;;;;;24.70;36.50;97937.59;8352780;28;20228;-77
2022/06/06 14:07:49;;;;;;;1.83;1.60;;;;;;;24.68;36.80;97936.94;8349233;28;20223;-76
2022/06/06 14:12:07;;;;;;;3.27;1.37;;;;;;;24.71;38.21;97938.41;8352266;28;20542;-73
2022/06/06 14:16:25;;;;;;;2.10;1.50;;;;;;;24.43;38.46;97927.16;8352250;28;20239;-73
2022/06/06 14:20:35;;;;;;;2.23;1.47;;;;;;;24.29;38.53;97924.09;8351630;28;20227;-73
2022/06/06 14:24:52;;;;;;;4.23;1.20;;;;;;;24.20;38.48;97922.41;8351891;28;20238;-74
2022/06/06 14:29:05;;;;;;;3.33;1.40;;;;;;;24.16;38.92;97921.88;8351803;28;20232;-76
2022/06/06 14:33:22;;;;;;;2.57;1.33;;;;;;;24.15;39.15;97928.16;8352010;28;20238;-73
2022/06/06 14:37:29;;;;;;;3.33;1.47;;;;;;;24.12;38.53;97914.41;8351500;28;20550;-75
2022/06/06 14:41:36;;;;;;;3.53;1.30;;;;;;;23.97;39.50;97927.34;8350247;28;20238;-74
2022/06/06 14:45:41;;;;;;;4.57;1.40;;;;;;;23.91;39.43;97928.81;8351461;28;20557;-75
2022/06/06 14:50:45;;;;;;;4.60;1.60;;;;;;;23.85;40.07;97924.13;8351515;28;20243;-74
2022/06/06 14:54:13;;;;;;;4.40;1.30;;;;;;;23.90;39.70;97921.03;8351159;28;20235;-74
2022/06/06 14:58:18;;;;;;;2.33;1.17;;;;;;;23.76;39.69;97920.56;8351120;28;20229;-74
2022/06/06 15:02:23;;;;;;;3.20;1.30;;;;;;;23.70;40.61;97917.69;8350910;28;20230;-74
2022/06/06 15:06:29;;;;;;;3.30;1.60;;;;;;;23.70;41.37;97918.50;8317688;28;20231;-73
2022/06/06 15:10:39;;;;;;;2.57;1.40;;;;;;;23.57;41.22;97913.63;8344074;28;20445;-73
2022/06/06 15:14:42;;;;;;;2.13;1.47;;;;;;;23.57;41.83;97921.56;8349277;28;20249;-73
2022/06/06 15:18:47;;;;;;;1.97;1.40;;;;;;;23.59;42.50;97918.78;8349593;28;20442;-74
2022/06/06 15:22:53;;;;;;;2.47;1.70;;;;;;;23.54;42.74;97921.84;8349910;28;20271;-74
2022/06/06 15:27:01;;;;;;;2.53;1.70;;;;;;;23.54;42.68;97923.66;8349956;28;20240;-74
2022/06/06 15:31:11;;;;;;;2.80;1.80;;;;;;;23.55;43.83;97918.25;8349711;28;20244;-75
2022/06/06 15:35:31;;;;;;;3.37;1.70;;;;;;;23.55;43.21;97920.88;8349891;28;20233;-74
2022/06/06 15:39:40;;;;;;;2.17;1.50;;;;;;;23.52;42.45;97907.97;8315677;28;20228;-75
2022/06/06 15:43:49;;;;;;;2.83;1.70;;;;;;;23.45;42.07;97901.59;8315743;28;20240;-75
2022/06/06 15:48:00;;;;;;;1.77;1.53;;;;;;;23.40;42.64;97915.28;8316598;28;20260;-75
2022/06/06 15:52:32;;;;;;;3.73;1.57;;;;;;;23.35;42.16;97904.34;8314917;28;20235;-75
2022/06/06 15:56:49;;;;;;;4.57;1.60;;;;;;;23.29;42.06;97904.13;8321646;28;20549;-78
2022/06/06 16:00:59;;;;;;;2.10;1.60;;;;;;;23.31;42.37;97902.97;8316114;28;20234;-78
2022/06/06 16:05:21;;;;;;;4.20;1.23;;;;;;;23.37;43.17;97894.44;8315456;28;20232;-77
2022/06/06 16:09:30;;;;;;;4.40;1.57;;;;;;;23.42;43.60;97892.19;8322661;28;20429;-77
2022/06/06 16:14:08;;;;;;;2.90;2.03;;;;;;;23.32;43.80;97903.78;8347983;28;20232;-77
2022/06/06 16:18:15;;;;;;;4.63;1.70;;;;;;;23.45;44.19;97898.16;8347342;28;20529;-77
2022/06/06 16:22:23;;;;;;;2.80;1.80;;;;;;;23.38;44.46;97908.47;8348511;28;20410;-77
2022/06/06 16:26:30;;;;;;;2.80;1.60;;;;;;;23.26;43.88;97912.31;8345992;28;20403;-76
2022/06/06 16:30:37;;;;;;;3.00;1.43;;;;;;;23.31;43.62;97900.34;8348127;28;20260;-77
2022/06/06 16:34:40;;;;;;;1.93;1.30;;;;;;;23.38;43.63;97892.63;8348100;28;20526;-77
2022/06/06 16:39:15;;;;;;;4.93;1.40;;;;;;;23.18;44.06;97900.69;8347824;28;20234;-76
2022/06/06 16:48:27;;;;;;;3.50;1.57;;;;;;;23.11;45.12;97904.06;8347240;28;20280;-76
2022/06/06 16:52:42;;;;;;;6.10;1.90;;;;;;;23.08;45.79;97897.28;8344184;28;20224;-76
2022/06/06 16:56:58;;;;;;;3.03;1.63;;;;;;;23.02;46.44;97905.78;8347310;28;20255;-76
2022/06/06 17:01:03;;;;;;;2.93;1.70;;;;;;;22.95;46.68;97905.53;8346817;28;20564;-76
2022/06/06 17:05:22;;;;;;;4.20;1.47;;;;;;;22.90;47.23;97904.31;8347196;28;20426;-77
2022/06/06 17:09:32;;;;;;;3.43;1.50;;;;;;;22.89;47.82;97906.13;8345475;28;20247;-75
2022/06/06 17:13:39;;;;;;;2.83;1.70;;;;;;;22.88;47.24;97907.09;8346732;28;20424;-77
2022/06/06 17:18:02;;;;;;;4.00;1.77;;;;;;;22.85;47.40;97904.78;8346436;28;20240;-76
2022/06/06 17:22:10;;;;;;;2.83;1.70;;;;;;;22.80;47.16;97899.09;8347097;28;20224;-77
2022/06/06 17:26:39;;;;;;;3.87;1.83;;;;;;;22.80;47.46;97902.56;8346959;28;20237;-76
2022/06/06 17:30:49;;;;;;;4.57;1.80;;;;;;;22.76;47.16;97897.72;8346850;28;20235;-76
2022/06/06 17:35:15;;;;;;;5.03;1.90;;;;;;;22.73;47.28;97895.38;8346780;28;20240;-76
2022/06/06 17:39:42;;;;;;;2.57;1.70;;;;;;;22.72;47.65;97897.19;8346927;28;20236;-77
2022/06/06 17:44:13;;;;;;;6.30;2.23;;;;;;;22.69;47.46;97888.72;8338826;28;20246;-77
2022/06/06 17:48:26;;;;;;;3.83;1.80;;;;;;;22.70;48.01;97898.31;8306975;28;20288;-78
2022/06/06 17:52:36;;;;;;;3.00;1.87;;;;;;;22.61;47.58;97900.00;8321025;28;20232;-79
2022/06/06 17:56:49;;;;;;;3.00;1.90;;;;;;;22.63;47.66;97898.88;8346204;28;20233;-78
2022/06/06 18:01:12;;;;;;;8.17;2.00;;;;;;;22.60;47.56;97893.91;8328588;28;20236;-77
2022/06/06 18:05:32;;;;;;;7.10;2.00;;;;;;;22.57;47.46;97896.81;8313908;28;20538;-78
2022/06/06 18:09:56;;;;;;;4.93;1.80;;;;;;;22.53;48.39;97890.19;8329662;28;20237;-79
2022/06/06 18:14:14;;;;;;;4.33;2.60;;;;;;;22.60;48.14;97885.16;8349017;28;20563;-80
2022/06/06 18:18:20;;;;;;;3.70;1.97;;;;;;;22.55;47.78;97876.84;8352303;28;20411;-79
2022/06/06 18:22:28;;;;;;;2.87;2.07;;;;;;;22.49;48.13;97877.44;8319127;28;20225;-78
2022/06/06 18:26:36;;;;;;;3.50;2.30;;;;;;;22.48;48.04;97873.13;8319353;28;20409;-76
2022/06/06 18:30:48;;;;;;;5.00;2.37;;;;;;;22.46;48.23;97870.63;8319203;28;20294;-77
2022/06/06 18:34:56;;;;;;;4.47;2.30;;;;;;;22.42;48.05;97864.81;8319179;28;20233;-77
2022/06/06 18:38:59;;;;;;;3.90;2.17;;;;;;;22.34;48.17;97862.06;8318836;28;20232;-80
2022/06/06 18:43:21;;;;;;;4.20;2.17;;;;;;;22.32;48.46;97861.38;8317971;28;20282;-77
2022/06/06 18:47:32;;;;;;;8.63;2.80;;;;;;;22.30;48.88;97863.34;8330690;28;20232;-77
2022/06/06 18:51:40;;;;;;;5.77;2.50;;;;;;;22.24;48.10;97856.81;8318576;28;20232;-77
2022/06/06 18:55:47;;;;;;;3.53;2.27;;;;;;;22.18;47.34;97867.94;8318610;28;20531;-77
2022/06/06 19:00:15;;;;;;;5.27;1.93;;;;;;;22.21;47.08;97867.63;8318098;28;20229;-78
2022/06/06 19:04:23;;;;;;;5.30;2.13;;;;;;;22.21;47.68;97858.91;8318240;28;20228;-77
2022/06/06 19:08:26;;;;;;;4.43;2.67;;;;;;;22.17;48.74;97866.25;8325658;28;20221;-77
2022/06/06 19:12:33;;;;;;;3.63;2.80;;;;;;;22.14;48.67;97870.97;8350873;28;20235;-77
2022/06/06 19:16:39;;;;;;;8.00;3.60;;;;;;;22.10;49.01;97872.25;8335556;28;20411;-80
2022/06/06 19:20:49;;;;;;;3.33;2.30;;;;;;;22.12;48.83;97873.75;8317725;28;20240;-76
2022/06/06 19:24:54;;;;;;;3.20;2.90;;;;;;;22.11;49.70;97873.94;8316847;28;20232;-77
2022/06/06 19:28:59;;;;;;;4.93;2.27;;;;;;;22.06;49.70;97880.44;8321704;28;20230;-77
2022/06/06 19:33:21;;;;;;;2.30;2.10;;;;;;;21.95;49.22;97877.13;8319046;28;20231;-77
2022/06/06 19:37:32;;;;;;;4.80;2.20;;;;;;;21.92;49.77;97883.53;8315114;28;20240;-75
2022/06/06 19:41:36;;;;;;;5.07;2.43;;;;;;;21.93;49.63;97877.28;8313434;28;20320;-76
2022/06/06 19:45:46;;;;;;;3.57;2.13;;;;;;;21.85;49.81;97882.44;8316230;28;20225;-75
2022/06/06 19:49:51;;;;;;;4.73;2.40;;;;;;;21.81;49.77;97884.50;8314412;28;20402;-75
2022/06/06 19:53:58;;;;;;;4.90;2.20;;;;;;;21.83;49.47;97887.84;8315949;28;20229;-76
2022/06/06 19:58:04;;;;;;;4.07;2.13;;;;;;;21.83;49.30;97894.91;8316130;28;20235;-75
2022/06/06 20:02:15;;;;;;;4.20;2.10;;;;;;;21.83;50.36;97898.38;8315860;28;20526;-76
2022/06/06 20:06:20;;;;;;;4.13;2.27;;;;;;;21.74;51.11;97888.72;8313924;28;20232;-76
2022/06/06 20:10:28;;;;;;;6.07;2.43;;;;;;;21.72;50.10;97888.00;8322937;28;20255;-75
2022/06/06 20:14:32;;;;;;;3.53;2.50;;;;;;;21.75;49.69;97885.09;8312804;28;20429;-75
2022/06/06 20:18:35;;;;;;;2.80;2.20;;;;;;;21.73;49.67;97884.41;8315255;28;20247;-75
2022/06/06 20:22:38;;;;;;;3.80;2.27;;;;;;;21.70;49.63;97881.19;8315212;28;20224;-75